createdAt,value
2018-07-25T00:00:27.509Z,21.20
2018-07-25T00:03:25.674Z,21.15
2018-07-25T00:06:23.085Z,21.19
2018-07-25T00:09:21.114Z,21.23
2018-07-25T00:12:19.262Z,21.22
2018-07-25T00:15:17.359Z,20.88
2018-07-25T00:18:26.736Z,20.76
2018-07-25T00:21:24.851Z,20.62
2018-07-25T00:24:21.852Z,20.62
2018-07-25T00:27:19.958Z,20.71
2018-07-25T00:30:18.005Z,20.78
2018-07-25T00:33:15.188Z,20.56
2018-07-25T00:36:13.241Z,20.48
2018-07-25T00:39:11.229Z,20.61
2018-07-25T00:42:08.403Z,20.67
2018-07-25T00:45:05.739Z,20.71
2018-07-25T00:48:02.799Z,20.71
2018-07-25T00:50:59.798Z,20.69
2018-07-25T00:53:56.728Z,20.48
2018-07-25T00:56:54.780Z,20.31
2018-07-25T00:59:52.863Z,20.10
2018-07-25T01:02:50.889Z,20.04
2018-07-25T01:05:48.199Z,20.21
2018-07-25T01:08:45.302Z,20.29
2018-07-25T01:11:42.381Z,20.32
2018-07-25T01:14:39.544Z,20.34
2018-07-25T01:17:36.695Z,20.37
2018-07-25T01:20:33.934Z,20.33
2018-07-25T01:23:32.051Z,20.03
2018-07-25T01:26:29.497Z,19.94
2018-07-25T01:29:26.891Z,19.98
2018-07-25T01:32:24.475Z,20.02
2018-07-25T01:35:21.632Z,20.11
2018-07-25T01:38:19.179Z,20.21
2018-07-25T01:41:16.708Z,19.96
2018-07-25T01:44:13.863Z,19.83
2018-07-25T01:47:11.248Z,19.87
2018-07-25T01:50:09.095Z,19.84
2018-07-25T01:53:06.601Z,19.82
2018-07-25T01:56:03.763Z,19.68
2018-07-25T01:59:01.571Z,19.57
2018-07-25T02:01:58.935Z,19.62
2018-07-25T02:04:56.210Z,19.43
2018-07-25T02:07:54.273Z,19.52
2018-07-25T02:10:53.567Z,19.54
2018-07-25T02:13:50.628Z,19.57
2018-07-25T02:16:47.795Z,19.47
2018-07-25T02:19:45.867Z,19.28
2018-07-25T02:22:42.827Z,19.19
2018-07-25T02:25:40.252Z,19.17
2018-07-25T02:28:37.841Z,19.23
2018-07-25T02:31:34.890Z,19.25
2018-07-25T02:34:32.666Z,19.35
2018-07-25T02:37:29.815Z,19.32
2018-07-25T02:40:27.075Z,19.33
2018-07-25T02:43:24.563Z,19.18
2018-07-25T02:46:22.213Z,19.18
2018-07-25T02:49:19.362Z,19.05
2018-07-25T02:52:17.224Z,18.96
2018-07-25T02:55:15.112Z,19.01
2018-07-25T02:58:13.092Z,19.10
2018-07-25T03:01:10.845Z,19.04
2018-07-25T03:04:08.419Z,19.20
2018-07-25T03:07:05.758Z,19.27
2018-07-25T03:10:03.141Z,19.40
2018-07-25T03:13:01.337Z,19.49
2018-07-25T03:15:58.958Z,19.57
2018-07-25T03:18:56.871Z,19.53
2018-07-25T03:21:54.812Z,19.44
2018-07-25T03:24:51.952Z,19.46
2018-07-25T03:27:49.123Z,19.48
2018-07-25T03:30:47.277Z,19.42
2018-07-25T03:33:44.453Z,19.22
2018-07-25T03:36:41.411Z,19.24
2018-07-25T03:39:38.880Z,19.19
2018-07-25T03:42:36.680Z,19.21
2018-07-25T03:45:34.356Z,19.33
2018-07-25T03:48:31.659Z,19.46
2018-07-25T03:51:29.244Z,19.53
2018-07-25T03:54:26.292Z,19.60
2018-07-25T03:57:23.351Z,19.85
2018-07-25T04:00:21.015Z,20.12
2018-07-25T04:03:18.684Z,20.32
2018-07-25T04:06:16.460Z,20.72
2018-07-25T04:09:13.881Z,21.06
2018-07-25T04:12:11.403Z,21.18
2018-07-25T04:15:08.443Z,21.63
2018-07-25T04:18:06.194Z,21.75
2018-07-25T04:21:03.669Z,22.38
2018-07-25T04:24:01.112Z,22.73
2018-07-25T04:26:58.951Z,22.98
2018-07-25T04:29:56.780Z,22.59
2018-07-25T04:32:55.037Z,22.84
2018-07-25T04:35:52.108Z,23.79
2018-07-25T04:38:50.067Z,24.47
2018-07-25T04:41:47.471Z,25.31
2018-07-25T04:44:45.446Z,25.87
2018-07-25T04:47:42.875Z,26.51
2018-07-25T04:50:39.902Z,27.41
2018-07-25T04:53:38.009Z,27.75
2018-07-25T04:56:35.349Z,28.39
2018-07-25T04:59:33.319Z,28.23
2018-07-25T05:02:30.384Z,29.18
2018-07-25T05:05:27.862Z,29.31
2018-07-25T05:08:25.493Z,29.11
2018-07-25T05:11:22.647Z,29.29
2018-07-25T05:14:20.427Z,28.15
2018-07-25T05:17:17.787Z,27.09
2018-07-25T05:20:15.375Z,26.76
2018-07-25T05:23:13.448Z,26.29
2018-07-25T05:26:11.030Z,26.02
2018-07-25T05:29:08.687Z,25.90
2018-07-25T05:32:05.896Z,25.64
2018-07-25T05:35:03.684Z,25.64
2018-07-25T05:38:00.784Z,25.93
2018-07-25T05:40:58.107Z,27.19
2018-07-25T05:43:56.285Z,27.14
2018-07-25T05:46:54.179Z,27.53
2018-07-25T05:49:52.220Z,28.76
2018-07-25T05:52:50.295Z,29.98
2018-07-25T05:55:47.257Z,30.98
2018-07-25T05:58:45.074Z,32.42
2018-07-25T06:01:42.252Z,33.61
2018-07-25T06:04:39.783Z,32.88
2018-07-25T06:07:37.267Z,33.46
2018-07-25T06:10:34.251Z,33.47
2018-07-25T06:13:31.682Z,34.20
2018-07-25T06:16:29.259Z,34.52
2018-07-25T06:19:26.824Z,35.19
2018-07-25T06:22:24.407Z,35.86
2018-07-25T06:25:21.650Z,35.99
2018-07-25T06:28:19.320Z,35.91
2018-07-25T06:31:16.717Z,35.35
2018-07-25T06:34:14.347Z,34.86
2018-07-25T06:37:12.081Z,33.94
2018-07-25T06:40:09.260Z,33.75
2018-07-25T06:43:07.004Z,33.79
2018-07-25T06:46:04.189Z,33.40
2018-07-25T06:49:01.410Z,33.50
2018-07-25T06:51:58.772Z,33.30
2018-07-25T06:54:55.952Z,33.84
2018-07-25T06:57:52.832Z,33.75
2018-07-25T07:00:50.716Z,33.63
2018-07-25T07:03:47.823Z,34.29
2018-07-25T07:06:45.659Z,34.50
2018-07-25T07:09:43.422Z,34.74
2018-07-25T07:12:40.575Z,34.97
2018-07-25T07:15:38.436Z,34.77
2018-07-25T07:18:35.460Z,35.42
2018-07-25T07:21:33.236Z,36.35
2018-07-25T07:24:31.170Z,37.05
2018-07-25T07:27:28.578Z,36.98
2018-07-25T07:30:25.830Z,37.38
2018-07-25T07:33:23.344Z,37.54
2018-07-25T07:36:20.788Z,37.75
2018-07-25T07:39:21.484Z,38.19
2018-07-25T07:42:18.991Z,38.74
2018-07-25T07:45:16.457Z,39.28
2018-07-25T07:48:13.715Z,38.56
2018-07-25T07:51:11.235Z,37.82
2018-07-25T07:54:08.536Z,37.61
2018-07-25T07:57:05.787Z,37.71
2018-07-25T08:00:03.217Z,38.57
2018-07-25T08:03:00.719Z,39.47
2018-07-25T08:05:58.645Z,39.34
2018-07-25T08:08:55.819Z,40.13
2018-07-25T08:11:53.889Z,40.00
2018-07-25T08:14:51.951Z,40.62
2018-07-25T08:17:49.110Z,39.54
2018-07-25T08:20:47.042Z,39.89
2018-07-25T08:23:44.411Z,40.61
2018-07-25T08:26:41.788Z,39.77
2018-07-25T08:29:39.094Z,40.61
2018-07-25T08:32:36.834Z,41.10
2018-07-25T08:35:34.547Z,41.12
2018-07-25T08:38:36.997Z,42.28
2018-07-25T08:41:34.361Z,42.91
2018-07-25T08:44:31.788Z,43.73
2018-07-25T08:47:29.251Z,43.85
2018-07-25T08:50:27.956Z,44.57
2018-07-25T08:53:25.399Z,42.62
2018-07-25T08:56:22.687Z,42.47
2018-07-25T08:59:19.715Z,41.63
2018-07-25T09:02:16.981Z,42.67
2018-07-25T09:05:14.680Z,43.09
2018-07-25T09:08:12.745Z,42.95
2018-07-25T09:11:09.916Z,41.64
2018-07-25T09:14:07.143Z,43.25
2018-07-25T09:17:05.295Z,43.47
2018-07-25T09:20:03.062Z,42.09
2018-07-25T09:23:01.197Z,42.38
2018-07-25T09:25:59.304Z,41.61
2018-07-25T09:28:57.235Z,43.05
2018-07-25T09:31:55.332Z,43.63
2018-07-25T09:34:52.757Z,41.91
2018-07-25T09:37:49.896Z,43.27
2018-07-25T09:40:47.795Z,43.14
2018-07-25T09:43:45.136Z,42.72
2018-07-25T09:46:42.800Z,41.81
2018-07-25T09:49:40.579Z,42.00
2018-07-25T09:52:37.866Z,42.63
2018-07-25T09:55:35.521Z,42.82
2018-07-25T09:58:33.298Z,40.65
2018-07-25T10:01:31.361Z,40.42
2018-07-25T10:04:28.789Z,40.05
2018-07-25T10:07:26.395Z,40.29
2018-07-25T10:10:23.976Z,41.03
2018-07-25T10:13:21.414Z,41.50
2018-07-25T10:16:19.057Z,41.09
2018-07-25T10:19:16.328Z,41.88
2018-07-25T10:22:14.611Z,42.09
2018-07-25T10:25:12.719Z,41.39
2018-07-25T10:28:10.465Z,40.32
2018-07-25T10:31:08.237Z,38.77
2018-07-25T10:34:06.148Z,38.25
2018-07-25T10:37:04.457Z,38.14
2018-07-25T10:40:02.589Z,38.85
2018-07-25T10:43:00.444Z,41.06
2018-07-25T10:45:58.330Z,41.22
2018-07-25T10:48:56.246Z,41.43
2018-07-25T10:51:54.258Z,41.76
2018-07-25T10:54:52.094Z,39.36
2018-07-25T10:57:49.870Z,39.44
2018-07-25T11:00:47.848Z,38.92
2018-07-25T11:03:45.031Z,40.03
2018-07-25T11:06:43.072Z,39.99
2018-07-25T11:09:40.348Z,41.02
2018-07-25T11:12:38.412Z,40.04
2018-07-25T11:15:36.391Z,38.74
2018-07-25T11:18:33.467Z,38.81
2018-07-25T11:21:30.720Z,39.91
2018-07-25T11:24:28.925Z,40.14
2018-07-25T11:27:26.891Z,39.47
2018-07-25T11:30:25.043Z,39.84
2018-07-25T11:33:22.177Z,40.95
2018-07-25T11:36:19.366Z,41.45
2018-07-25T11:39:18.348Z,41.48
2018-07-25T11:42:16.359Z,40.05
2018-07-25T11:45:14.402Z,38.27
2018-07-25T11:48:12.374Z,38.03
2018-07-25T11:51:10.460Z,37.56
2018-07-25T11:54:08.311Z,37.36
2018-07-25T11:57:05.598Z,36.58
2018-07-25T12:00:03.468Z,36.58
2018-07-25T12:03:01.221Z,36.23
2018-07-25T12:05:58.315Z,36.37
2018-07-25T12:08:56.028Z,36.30
2018-07-25T12:11:54.108Z,36.30
2018-07-25T12:14:51.997Z,36.32
2018-07-25T12:17:49.784Z,36.24
2018-07-25T12:20:47.954Z,35.99
2018-07-25T12:23:45.970Z,35.88
2018-07-25T12:26:44.002Z,35.24
2018-07-25T12:29:41.201Z,35.00
2018-07-25T12:32:38.487Z,34.86
2018-07-25T12:35:36.612Z,35.07
2018-07-25T12:38:34.593Z,35.55
2018-07-25T12:41:32.588Z,35.79
2018-07-25T12:44:30.612Z,35.87
2018-07-25T12:47:28.403Z,35.58
2018-07-25T12:50:26.484Z,35.69
2018-07-25T12:53:23.904Z,35.72
2018-07-25T12:56:21.282Z,35.99
2018-07-25T12:59:19.335Z,35.63
2018-07-25T13:02:17.256Z,35.38
2018-07-25T13:05:15.244Z,36.09
2018-07-25T13:08:12.555Z,36.52
2018-07-25T13:11:09.824Z,37.01
2018-07-25T13:14:06.968Z,37.02
2018-07-25T13:17:04.963Z,37.32
2018-07-25T13:20:02.865Z,36.80
2018-07-25T13:23:01.030Z,37.00
2018-07-25T13:25:59.172Z,36.74
2018-07-25T13:28:56.532Z,36.59
2018-07-25T13:31:53.691Z,36.82
2018-07-25T13:34:51.563Z,36.49
2018-07-25T13:37:49.647Z,35.96
2018-07-25T13:40:46.994Z,35.97
2018-07-25T13:43:45.217Z,36.19
2018-07-25T13:46:44.122Z,36.60
2018-07-25T13:49:50.479Z,36.73
2018-07-25T13:52:47.480Z,36.20
2018-07-25T13:55:44.877Z,35.62
2018-07-25T13:58:42.017Z,35.85
2018-07-25T14:01:40.075Z,35.73
2018-07-25T14:04:37.861Z,35.01
2018-07-25T14:07:36.080Z,35.34
2018-07-25T14:10:34.193Z,35.28
2018-07-25T14:13:32.291Z,35.10
2018-07-25T14:16:30.206Z,34.81
2018-07-25T14:19:27.408Z,34.38
2018-07-25T14:22:25.619Z,34.39
2018-07-25T14:25:23.487Z,34.41
2018-07-25T14:28:20.657Z,34.15
2018-07-25T14:31:18.507Z,34.00
2018-07-25T14:34:16.582Z,34.01
2018-07-25T14:37:13.925Z,34.18
2018-07-25T14:40:11.845Z,33.84
2018-07-25T14:43:09.190Z,33.85
2018-07-25T14:46:07.194Z,33.89
2018-07-25T14:49:05.316Z,33.69
2018-07-25T14:52:03.306Z,33.90
2018-07-25T14:55:01.376Z,33.95
2018-07-25T14:57:58.511Z,34.10
2018-07-25T15:00:56.537Z,34.24
2018-07-25T15:03:53.683Z,34.24
2018-07-25T15:06:51.865Z,34.36
2018-07-25T15:09:49.915Z,34.38
2018-07-25T15:12:54.362Z,34.31
2018-07-25T15:15:52.189Z,34.43
2018-07-25T15:18:49.472Z,34.31
2018-07-25T15:21:47.328Z,34.32
2018-07-25T15:24:44.483Z,34.26
2018-07-25T15:27:42.140Z,34.31
2018-07-25T15:30:40.036Z,34.01
2018-07-25T15:33:38.121Z,33.79
2018-07-25T15:36:52.159Z,33.58
2018-07-25T15:39:50.110Z,33.77
2018-07-25T15:42:47.420Z,33.65
2018-07-25T15:45:45.548Z,33.50
2018-07-25T15:48:43.453Z,33.46
2018-07-25T15:51:41.739Z,33.45
2018-07-25T15:54:39.812Z,33.49
2018-07-25T15:57:37.807Z,33.45
2018-07-25T16:00:35.760Z,33.56
2018-07-25T16:03:32.985Z,33.57
2018-07-25T16:06:30.463Z,33.58
2018-07-25T16:09:29.587Z,33.60
2018-07-25T16:12:27.499Z,33.59
2018-07-25T16:15:25.507Z,33.77
2018-07-25T16:18:22.692Z,33.93
2018-07-25T16:21:20.767Z,34.00
2018-07-25T16:24:18.838Z,33.97
2018-07-25T16:27:17.732Z,33.90
2018-07-25T16:30:15.171Z,33.84
2018-07-25T16:33:13.196Z,33.77
2018-07-25T16:36:11.345Z,33.84
2018-07-25T16:39:09.253Z,33.79
2018-07-25T16:42:07.136Z,33.85
2018-07-25T16:45:04.976Z,33.54
2018-07-25T16:48:02.945Z,33.46
2018-07-25T16:51:01.124Z,33.43
2018-07-25T16:53:59.092Z,33.35
2018-07-25T16:56:57.236Z,33.18
2018-07-25T16:59:55.357Z,33.11
2018-07-25T17:02:53.212Z,32.96
2018-07-25T17:05:50.152Z,32.98
2018-07-25T17:08:47.516Z,32.90
2018-07-25T17:11:44.495Z,32.83
2018-07-25T17:14:42.523Z,32.78
2018-07-25T17:17:40.423Z,32.73
2018-07-25T17:20:37.709Z,32.70
2018-07-25T17:23:35.128Z,32.64
2018-07-25T17:26:32.299Z,32.54
2018-07-25T17:29:30.273Z,32.50
2018-07-25T17:32:28.347Z,32.55
2018-07-25T17:35:25.731Z,32.61
2018-07-25T17:38:23.371Z,32.60
2018-07-25T17:41:21.185Z,32.23
2018-07-25T17:44:19.125Z,31.88
2018-07-25T17:47:17.168Z,31.60
2018-07-25T17:50:15.473Z,31.41
2018-07-25T17:53:13.636Z,31.15
2018-07-25T17:56:11.619Z,31.01
2018-07-25T17:59:09.599Z,30.91
2018-07-25T18:02:07.603Z,30.73
2018-07-25T18:05:04.775Z,30.38
2018-07-25T18:08:02.809Z,30.41
2018-07-25T18:10:59.952Z,30.27
2018-07-25T18:14:04.203Z,30.01
2018-07-25T18:17:02.166Z,29.91
2018-07-25T18:20:00.352Z,29.89
2018-07-25T18:22:58.391Z,29.66
2018-07-25T18:25:56.093Z,29.58
2018-07-25T18:28:54.120Z,29.57
2018-07-25T18:31:52.240Z,29.47
2018-07-25T18:34:49.748Z,29.37
2018-07-25T18:37:48.054Z,28.99
2018-07-25T18:40:46.039Z,28.79
2018-07-25T18:43:44.109Z,28.69
2018-07-25T18:46:42.198Z,28.50
2018-07-25T18:49:39.770Z,28.47
2018-07-25T18:52:38.236Z,28.39
2018-07-25T18:55:36.040Z,28.31
2018-07-25T18:58:34.393Z,28.23
2018-07-25T19:01:33.282Z,28.24
2018-07-25T19:04:31.470Z,28.28
2018-07-25T19:07:29.426Z,28.22
2018-07-25T19:10:26.819Z,28.29
2018-07-25T19:13:31.121Z,28.26
2018-07-25T19:16:28.713Z,27.86
2018-07-25T19:19:27.171Z,27.51
2018-07-25T19:22:25.154Z,27.52
2018-07-25T19:25:22.884Z,27.35
2018-07-25T19:28:21.296Z,27.29
2018-07-25T19:31:19.169Z,27.17
2018-07-25T19:34:17.065Z,27.15
2018-07-25T19:37:15.102Z,26.96
2018-07-25T19:40:13.501Z,26.91
2018-07-25T19:43:11.786Z,27.09
2018-07-25T19:46:09.963Z,27.16
2018-07-25T19:49:07.785Z,27.01
2018-07-25T19:52:05.950Z,26.96
2018-07-25T19:55:03.733Z,27.04
2018-07-25T19:58:02.064Z,27.10
2018-07-25T20:01:00.073Z,27.12
2018-07-25T20:03:57.844Z,27.01
2018-07-25T20:06:56.048Z,26.95
2018-07-25T20:09:53.985Z,26.88
2018-07-25T20:12:51.180Z,26.73
2018-07-25T20:15:55.439Z,26.62
2018-07-25T20:18:53.516Z,26.62
2018-07-25T20:21:51.797Z,26.40
2018-07-25T20:24:49.157Z,26.25
2018-07-25T20:27:46.676Z,26.27
2018-07-25T20:30:45.210Z,26.24
2018-07-25T20:33:42.832Z,26.26
2018-07-25T20:36:40.685Z,26.16
2018-07-25T20:39:38.560Z,26.22
2018-07-25T20:42:36.393Z,26.27
2018-07-25T20:45:34.569Z,26.32
2018-07-25T20:48:32.091Z,26.37
2018-07-25T20:51:30.139Z,26.25
2018-07-25T20:54:28.496Z,26.23
2018-07-25T20:57:26.670Z,26.15
2018-07-25T21:00:29.003Z,26.16
2018-07-25T21:03:26.839Z,26.16
2018-07-25T21:06:24.778Z,26.20
2018-07-25T21:09:22.409Z,26.14
2018-07-25T21:12:19.571Z,26.00
2018-07-25T21:15:17.570Z,25.86
2018-07-25T21:18:15.175Z,25.75
2018-07-25T21:21:12.376Z,25.81
2018-07-25T21:24:09.861Z,25.80
2018-07-25T21:27:06.999Z,25.68
2018-07-25T21:30:04.259Z,25.71
2018-07-25T21:33:01.459Z,25.57
2018-07-25T21:35:59.391Z,25.71
2018-07-25T21:38:57.471Z,25.76
2018-07-25T21:41:55.359Z,25.48
2018-07-25T21:44:52.551Z,25.51
2018-07-25T21:47:50.040Z,25.52
2018-07-25T21:50:47.368Z,25.50
2018-07-25T21:53:44.849Z,25.49
2018-07-25T21:56:42.894Z,25.44
2018-07-25T21:59:40.830Z,25.38
2018-07-25T22:02:38.156Z,25.31
2018-07-25T22:05:36.032Z,25.35
2018-07-25T22:08:33.029Z,25.35
2018-07-25T22:11:30.946Z,25.31
2018-07-25T22:14:28.308Z,25.31
2018-07-25T22:17:25.536Z,25.33
2018-07-25T22:20:23.108Z,25.38
2018-07-25T22:23:20.152Z,25.35
2018-07-25T22:26:17.423Z,25.27
2018-07-25T22:29:15.227Z,25.25
2018-07-25T22:32:12.474Z,25.20
2018-07-25T22:35:10.300Z,25.24
2018-07-25T22:38:07.870Z,25.19
2018-07-25T22:41:06.036Z,25.16
2018-07-25T22:44:04.025Z,24.98
2018-07-25T22:47:01.114Z,24.87
2018-07-25T22:49:59.190Z,24.86
2018-07-25T22:52:57.058Z,24.80
2018-07-25T22:55:54.031Z,24.67
2018-07-25T22:58:51.293Z,24.52
2018-07-25T23:01:49.220Z,24.44
2018-07-25T23:04:46.224Z,24.44
2018-07-25T23:07:44.184Z,24.55
2018-07-25T23:10:41.353Z,24.70
2018-07-25T23:13:39.491Z,24.79
2018-07-25T23:16:37.525Z,24.76
2018-07-25T23:19:35.075Z,24.88
2018-07-25T23:22:32.403Z,24.94
2018-07-25T23:25:29.842Z,24.99
2018-07-25T23:28:26.898Z,25.00
2018-07-25T23:31:24.568Z,24.94
2018-07-25T23:34:21.700Z,24.92
2018-07-25T23:37:19.537Z,24.93
2018-07-25T23:40:16.336Z,24.86
2018-07-25T23:43:14.303Z,24.75
2018-07-25T23:46:12.099Z,24.65
2018-07-25T23:49:10.191Z,24.66
2018-07-25T23:52:07.618Z,24.41
2018-07-25T23:55:04.983Z,24.39
2018-07-25T23:58:02.552Z,24.16
